DRBK1: Arkansas River, Derby, KS

Data processed at Sat Dec 09 2017 23:04


All information presented herein is the property of the government of the United States of America and may be revised or deleted at any time without prior notice.
Dissemination of this information without the expressed written consent of the Public Affairs Office, Tulsa District U.S. Army Corps of Engineers is strictly prohibited.
These data are gathered electronically and, as presented, have not undergone any form of quality control. These data are not guaranteed to be valid or correct.
Go to home page.
Go to station list.

Upstream stations:

Downstream station:
Previous Day
Next Day
Current Day
    
SHEF ID:       DRBK1     ARKANSAS R AT DERBY, KS
STATION TYPE:  

               PRECIP     STAGE  RIV-FLOW  BAT-LOAD
                   in        ft       cfs      volt
              Ccp-Rev   Ccp-Rev   Ccp-Rev   Ccp-Rev
(US/Central)
12/07 00:00      ----      1.49       307     12.65
12/07 01:00      ----      1.51       317     12.65
12/07 02:00      ----      1.51       317     12.65
12/07 03:00      ----      1.50       312     12.65
12/07 04:00      ----      1.51       317     12.57
12/07 05:00      ----      1.50       312     12.57
12/07 06:00      ----      1.49       307     12.25
12/07 07:00      ----      1.47       297     12.57
12/07 08:00      ----      1.45       288     12.49
12/07 09:00      ----      1.44       283     12.57
12/07 10:00      ----      1.44       283     13.84
12/07 11:00      ----      1.42       274     13.37
12/07 12:00      ----      1.41       270     13.29
12/07 13:00      ----      1.42       274     13.29
12/07 14:00      ----      1.40       265     12.89
12/07 15:00      ----      1.37       252     13.13
12/07 16:00      ----      1.39       261     13.05
12/07 17:00      ----      1.44       283     13.05
12/07 18:00      ----      1.48       302     12.81
12/07 19:00      ----      1.52       321     12.81
12/07 20:00      ----      1.56       341     12.73
12/07 21:00      ----      1.57       346     12.73
12/07 22:00      ----      1.56       341     12.25
12/07 23:00      ----      1.54       331     12.65